Nuka Arctica — OXYH2 — position and weather

sailwx.info

Track history (hours):
 
Tides and Currents Weather Stations Pressure Air Temp Water Temp Dewpoint Dewpoint Depression Visibility Wind Speed Wind Dir Waves Ship Positions

Nuka Arctica

Last reported at 2017-Apr-22 17:18 UTC. Time now 2017-Apr-25 22:27 UTC.
Position N 58°34' E 004°22'.

Length 132.92 m; beam 24 m; draft 7.65 m.

Type: Cargo ship. MMSI: 219655000.

Date/timePositionNaut miles runAvg speedWind from/ knotsBaromVisibWave heightAir tempDewpointWater temp
2017-Apr-22 17:18N 58°34' E 004°22'3 9.2
2017-Apr-22 17:00N 58°33' E 004°27'510.1
2017-Apr-22 16:30N 58°31' E 004°36'510.5
2017-Apr-22 16:00N 58°29' E 004°46'510.7
2017-Apr-22 15:30N 58°27' E 004°55'510.6
2017-Apr-22 15:00N 58°25' E 005°04'611.1
2017-Apr-22 14:30N 58°23' E 005°14'1111.1
2017-Apr-22 13:30N 58°17' E 005°32'510.9
2017-Apr-22 13:00N 58°13' E 005°40'511.1
2017-Apr-22 12:30N 58°10' E 005°47'510.6
2017-Apr-22 12:00N 58°06' E 005°55'510.4
2017-Apr-22 11:30N 58°03' E 006°03'5 9.9
2017-Apr-22 11:00N 57°60' E 006°10'510.2
2017-Apr-22 10:30N 57°56' E 006°17'5 9.5
2017-Apr-22 10:00N 57°53' E 006°24'5 9.9
2017-Apr-22 09:30N 57°50' E 006°31'510.3
2017-Apr-22 09:00N 57°47' E 006°38'611.8
2017-Apr-22 08:30N 57°47' E 006°49'611.5
2017-Apr-22 08:00N 57°47' E 007°00'611.7
2017-Apr-22 07:30N 57°47' E 007°11'611.7
2017-Apr-22 07:01N 57°47' E 007°22'611.6
2017-Apr-22 06:30N 57°46' E 007°33'612.7
2017-Apr-22 06:00N 57°47' E 007°45'612.7
2017-Apr-22 05:30N 57°46' E 007°57'713.3
2017-Apr-22 05:00N 57°47' E 008°10'6512.4
2017-Apr-21 23:44N 57°48' E 010°11'311.1
2017-Apr-21 23:29N 57°48' E 010°17'510.5
2017-Apr-21 23:00N 57°48' E 010°26'5 9.8
2017-Apr-21 22:30N 57°48' E 010°36'5 9.7
2017-Apr-21 21:58N 57°48' E 010°45'612.4
2017-Apr-21 21:29N 57°42' E 010°47'714.0
2017-Apr-21 21:00N 57°35' E 010°46'713.8
2017-Apr-21 20:30N 57°28' E 010°44'713.7
2017-Apr-21 19:59N 57°21' E 010°43'613.3
2017-Apr-21 19:30N 57°15' E 010°43'21 7.0
2017-Apr-21 16:30N 56°55' E 010°29'611.4
2017-Apr-21 16:01N 56°58' E 010°21'611.6
2017-Apr-21 15:31N 57°00' E 010°10'5 9.3
2017-Apr-21 15:01N 57°03' E 010°04'0 0.0
2017-Apr-21 14:27N 57°03' E 010°04'0 0.0
2017-Apr-21 13:27N 57°03' E 010°04'0 0.0
2017-Apr-21 12:57N 57°03' E 010°04'0 0.0
2017-Apr-21 12:30N 57°03' E 010°04'0 0.0
2017-Apr-21 12:00N 57°03' E 010°04'0 0.0
2017-Apr-21 11:30N 57°03' E 010°04'0 0.0
2017-Apr-21 11:00N 57°03' E 010°04'0 0.0
2017-Apr-21 10:30N 57°03' E 010°04'0 0.0
2017-Apr-21 09:57N 57°03' E 010°04'0 0.0
2017-Apr-21 09:27N 57°03' E 010°04'0 0.0
2017-Apr-21 09:00N 57°03' E 010°04'0 0.0
2017-Apr-21 08:30N 57°03' E 010°04'0 0.0
2017-Apr-21 07:51N 57°03' E 010°04'0 0.0
2017-Apr-21 07:30N 57°03' E 010°04'0 0.0
2017-Apr-21 06:57N 57°03' E 010°04'0 0.0
2017-Apr-21 06:30N 57°03' E 010°04'0 0.0
2017-Apr-21 05:57N 57°03' E 010°04'0 0.0
2017-Apr-21 05:30N 57°03' E 010°04'0 0.0
2017-Apr-21 05:00N 57°03' E 010°04'0 0.0
2017-Apr-21 04:30N 57°03' E 010°04'0 0.0
2017-Apr-21 04:00N 57°03' E 010°04'0 0.0
2017-Apr-21 03:30N 57°03' E 010°04'0 0.0
2017-Apr-21 03:00N 57°03' E 010°04'0 0.0
2017-Apr-21 02:27N 57°03' E 010°04'0 0.0
2017-Apr-21 02:00N 57°03' E 010°04'0 0.0
2017-Apr-21 01:30N 57°03' E 010°04'0 0.0
2017-Apr-21 01:00N 57°03' E 010°04'0 0.0
2017-Apr-21 00:30N 57°03' E 010°04'0 0.0
2017-Apr-21 00:00N 57°03' E 010°04'0 0.0
2017-Apr-20 23:30N 57°03' E 010°04'0 0.0
2017-Apr-20 23:00N 57°03' E 010°04'0 0.0
2017-Apr-20 22:30N 57°03' E 010°04'0 0.0
2017-Apr-20 21:57N 57°03' E 010°04'0 0.0
2017-Apr-20 21:30N 57°03' E 010°04'0 0.0
2017-Apr-20 21:00N 57°03' E 010°04'0 0.0
2017-Apr-20 20:27N 57°03' E 010°04'0 0.0
2017-Apr-20 20:00N 57°03' E 010°04'0 0.0
2017-Apr-20 19:30N 57°03' E 010°04'0 0.0
2017-Apr-20 19:00N 57°03' E 010°04'0 0.0
2017-Apr-20 18:30N 57°03' E 010°04'0 0.0
2017-Apr-20 18:00N 57°03' E 010°04'0 0.0
2017-Apr-20 17:30N 57°03' E 010°04'0 0.0
2017-Apr-20 17:00N 57°03' E 010°04'0 0.0
2017-Apr-20 16:30N 57°03' E 010°04'0 0.0
2017-Apr-20 15:57N 57°03' E 010°04'0 0.0
2017-Apr-20 15:27N 57°03' E 010°04'0 0.0
2017-Apr-20 14:57N 57°03' E 010°04'0 0.4
2017-Apr-20 14:30N 57°03' E 010°03'0 0.0
2017-Apr-20 13:30N 57°03' E 010°03'0 0.0
2017-Apr-20 12:57N 57°03' E 010°03'0 0.0
2017-Apr-20 12:30N 57°03' E 010°03'0 0.0
2017-Apr-20 12:00N 57°03' E 010°03'0 0.0
2017-Apr-20 11:27N 57°03' E 010°03'0 0.0
2017-Apr-20 11:00N 57°03' E 010°03'0 0.0
2017-Apr-20 10:30N 57°03' E 010°03'0 0.0
2017-Apr-20 10:00N 57°03' E 010°03'0 0.0
2017-Apr-20 09:30N 57°03' E 010°03'0 0.0
2017-Apr-20 08:57N 57°03' E 010°03'0 0.0
2017-Apr-20 08:21N 57°03' E 010°03'0 0.0
2017-Apr-20 08:00N 57°03' E 010°03'0 0.0
2017-Apr-20 07:30N 57°03' E 010°03'0 0.0
2017-Apr-20 06:57N 57°03' E 010°03'0 0.0
2017-Apr-20 06:30N 57°03' E 010°03'0 0.0
2017-Apr-20 06:00N 57°03' E 010°03'0 0.0
2017-Apr-20 05:27N 57°03' E 010°03'0 0.0
2017-Apr-20 05:00N 57°03' E 010°03'0 0.0
2017-Apr-20 04:30N 57°03' E 010°03'0 0.0
2017-Apr-20 04:00N 57°03' E 010°03'0 0.0
2017-Apr-20 03:30N 57°03' E 010°03'0 0.0
2017-Apr-20 02:51N 57°03' E 010°03'0 0.0
2017-Apr-20 02:27N 57°03' E 010°03'0 0.0
2017-Apr-20 01:51N 57°03' E 010°03'0 0.0
2017-Apr-20 01:27N 57°03' E 010°03'0 0.0
2017-Apr-20 00:57N 57°03' E 010°03'0 0.0
2017-Apr-20 00:30N 57°03' E 010°03'0 0.0
2017-Apr-19 23:57N 57°03' E 010°03'0 0.0
2017-Apr-19 23:27N 57°03' E 010°03'0 0.0
2017-Apr-19 23:00N 57°03' E 010°03'0 0.0
2017-Apr-19 22:30N 57°03' E 010°03'0 0.0
2017-Apr-19 21:57N 57°03' E 010°03'0 0.0
2017-Apr-19 21:27N 57°03' E 010°03'0 0.0
2017-Apr-19 21:00N 57°03' E 010°03'0 0.0
2017-Apr-19 20:30N 57°03' E 010°03'0 0.0
2017-Apr-19 20:00N 57°03' E 010°03'0 0.0
2017-Apr-19 19:30N 57°03' E 010°03'0 0.0
2017-Apr-19 19:00N 57°03' E 010°03'0 0.0
2017-Apr-19 18:27N 57°03' E 010°03'0 0.0
2017-Apr-19 18:00N 57°03' E 010°03'0 0.0
2017-Apr-19 17:30N 57°03' E 010°03'0 0.0
2017-Apr-19 17:00N 57°03' E 010°03'0 0.0
2017-Apr-19 16:30N 57°03' E 010°03'0 0.0
2017-Apr-19 16:00N 57°03' E 010°03'0 0.0
2017-Apr-19 15:30N 57°03' E 010°03'0 0.0
2017-Apr-19 15:00N 57°03' E 010°03'0 0.0
2017-Apr-19 14:27N 57°03' E 010°03'0 0.0
2017-Apr-19 13:21N 57°03' E 010°03'0 0.0
2017-Apr-19 13:00N 57°03' E 010°03'0 0.0
2017-Apr-19 12:27N 57°03' E 010°03'0 0.0
2017-Apr-19 12:00N 57°03' E 010°03'0 0.0
2017-Apr-19 11:30N 57°03' E 010°03'0 0.0
2017-Apr-19 10:48N 57°03' E 010°03'0 0.0
2017-Apr-19 10:30N 57°03' E 010°03'0 0.0
2017-Apr-19 10:00N 57°03' E 010°03'0 0.0
2017-Apr-19 09:30N 57°03' E 010°03'0 0.0
2017-Apr-19 09:00N 57°03' E 010°03'0 0.0
2017-Apr-19 08:30N 57°03' E 010°03'0 0.0
2017-Apr-19 08:00N 57°03' E 010°03'0 0.0
2017-Apr-19 07:30N 57°03' E 010°03'0 0.0
2017-Apr-19 07:00N 57°03' E 010°03'0 0.0
2017-Apr-19 06:30N 57°03' E 010°03'0 0.0
2017-Apr-19 06:00N 57°03' E 010°03'0 0.0
2017-Apr-19 05:30N 57°03' E 010°03'0 0.0
2017-Apr-19 05:00N 57°03' E 010°03'0 0.0
2017-Apr-19 04:30N 57°03' E 010°03'0 0.0
2017-Apr-19 04:00N 57°03' E 010°03'0 0.0
2017-Apr-19 03:30N 57°03' E 010°03'0 0.0
2017-Apr-19 03:00N 57°03' E 010°03'0 0.0
2017-Apr-19 02:30N 57°03' E 010°03'0 0.0
2017-Apr-19 02:00N 57°03' E 010°03'0 0.0
2017-Apr-19 01:30N 57°03' E 010°03'0 0.0
2017-Apr-19 01:00N 57°03' E 010°03'0 0.0
2017-Apr-19 00:30N 57°03' E 010°03'0 0.0
2017-Apr-19 00:00N 57°03' E 010°03'0 0.0
2017-Apr-18 23:30N 57°03' E 010°03'0 0.0
2017-Apr-18 23:00N 57°03' E 010°03'0 0.0
2017-Apr-18 22:27N 57°03' E 010°03'0 0.0
2017-Apr-18 22:00N 57°03' E 010°03'0 0.0
2017-Apr-18 21:30N 57°03' E 010°03'0 0.0
2017-Apr-18 21:00N 57°03' E 010°03'0 0.0
2017-Apr-18 20:30N 57°03' E 010°03'0 0.0
2017-Apr-18 20:00N 57°03' E 010°03'0 0.0
2017-Apr-18 19:27N 57°03' E 010°03'0 0.0
2017-Apr-18 18:57N 57°03' E 010°03'0 0.0
2017-Apr-18 18:30N 57°03' E 010°03'0 0.0
2017-Apr-18 18:00N 57°03' E 010°03'0 0.0
2017-Apr-18 17:30N 57°03' E 010°03'0 0.0
2017-Apr-18 17:00N 57°03' E 010°03'0 0.0
2017-Apr-18 16:30N 57°03' E 010°03'0 0.0
2017-Apr-18 16:00N 57°03' E 010°03'0 0.0
2017-Apr-18 15:30N 57°03' E 010°03'0 0.0
2017-Apr-18 14:57N 57°03' E 010°03'0 0.0
2017-Apr-18 14:30N 57°03' E 010°03'0 0.0
2017-Apr-18 13:30N 57°03' E 010°03'0 0.0
2017-Apr-18 13:00N 57°03' E 010°03'0 0.0
2017-Apr-18 12:30N 57°03' E 010°03'0 0.0
2017-Apr-18 12:00N 57°03' E 010°03'0 0.0
2017-Apr-18 11:30N 57°03' E 010°03'0 0.0
2017-Apr-18 11:00N 57°03' E 010°03'0 0.0
2017-Apr-18 10:30N 57°03' E 010°03'0 0.0
2017-Apr-18 10:00N 57°03' E 010°03'0 0.0
2017-Apr-18 09:27N 57°03' E 010°03'0 0.0
2017-Apr-18 09:00N 57°03' E 010°03'0 0.0
2017-Apr-18 08:30N 57°03' E 010°03'0 0.0
2017-Apr-18 07:57N 57°03' E 010°03'0 0.0
2017-Apr-18 07:21N 57°03' E 010°03'0 0.0
2017-Apr-18 07:00N 57°03' E 010°03'0 0.0
2017-Apr-18 06:30N 57°03' E 010°03'0 0.0
2017-Apr-18 06:00N 57°03' E 010°03'0 0.0
2017-Apr-18 05:21N 57°03' E 010°03'0 0.0
2017-Apr-18 05:00N 57°03' E 010°03'0 0.0
2017-Apr-18 04:30N 57°03' E 010°03'0 0.0
2017-Apr-18 04:00N 57°03' E 010°03'0 0.0
2017-Apr-18 03:30N 57°03' E 010°03'0 0.0
2017-Apr-18 03:00N 57°03' E 010°03'0 0.0
2017-Apr-18 02:30N 57°03' E 010°03'0 0.0
2017-Apr-18 02:00N 57°03' E 010°03'0 0.0
2017-Apr-18 01:30N 57°03' E 010°03'0 0.0
2017-Apr-18 00:57N 57°03' E 010°03'0 0.0
2017-Apr-18 00:24N 57°03' E 010°03'0 0.0
2017-Apr-18 00:00N 57°03' E 010°03'0 0.0
2017-Apr-17 23:30N 57°03' E 010°03'0 0.0
2017-Apr-17 23:00N 57°03' E 010°03'0 0.0
2017-Apr-17 22:27N 57°03' E 010°03'0 0.0
2017-Apr-17 22:00N 57°03' E 010°03'0 0.0
2017-Apr-17 21:30N 57°03' E 010°03'0 0.0
2017-Apr-17 21:00N 57°03' E 010°03'0 0.0
2017-Apr-17 20:30N 57°03' E 010°03'0 0.0
2017-Apr-17 20:00N 57°03' E 010°03'0 0.0
2017-Apr-17 19:27N 57°03' E 010°03'0 0.0
2017-Apr-17 19:00N 57°03' E 010°03'0 0.0
2017-Apr-17 18:27N 57°03' E 010°03'0 0.0
2017-Apr-17 18:00N 57°03' E 010°03'0 0.0
2017-Apr-17 17:30N 57°03' E 010°03'0 0.0
2017-Apr-17 17:00N 57°03' E 010°03'0 0.0
2017-Apr-17 16:30N 57°03' E 010°03'0 0.0
2017-Apr-17 15:57N 57°03' E 010°03'0 0.0
2017-Apr-17 15:27N 57°03' E 010°03'0 0.0
2017-Apr-17 15:00N 57°03' E 010°03'0 0.0
2017-Apr-17 14:30N 57°03' E 010°03'0 0.0
2017-Apr-17 13:30N 57°03' E 010°03'0 0.0
2017-Apr-17 13:00N 57°03' E 010°03'0 0.0
2017-Apr-17 12:30N 57°03' E 010°03'0 0.0
2017-Apr-17 12:00N 57°03' E 010°03'0 0.0
2017-Apr-17 11:30N 57°03' E 010°03'0 0.0
2017-Apr-17 11:00N 57°03' E 010°03'0 0.0
2017-Apr-17 10:30N 57°03' E 010°03'0 0.0
2017-Apr-17 09:45N 57°03' E 010°03'0 0.0
2017-Apr-17 09:30N 57°03' E 010°03'0 0.0
2017-Apr-17 09:00N 57°03' E 010°03'0 0.0
2017-Apr-17 08:30N 57°03' E 010°03'0 0.0
2017-Apr-17 08:00N 57°03' E 010°03'0 0.0
2017-Apr-17 07:30N 57°03' E 010°03'0 0.0
2017-Apr-17 07:00N 57°03' E 010°03'0 0.0
2017-Apr-17 06:27N 57°03' E 010°03'0 0.0
2017-Apr-17 06:00N 57°03' E 010°03'0 0.0
2017-Apr-17 05:30N 57°03' E 010°03'0 0.0
2017-Apr-17 05:00N 57°03' E 010°03'0 0.0
2017-Apr-17 04:30N 57°03' E 010°03'0 0.0
2017-Apr-17 03:57N 57°03' E 010°03'0 0.0
2017-Apr-17 03:27N 57°03' E 010°03'0 0.0
2017-Apr-17 02:57N 57°03' E 010°03'0 0.0
2017-Apr-17 02:30N 57°03' E 010°03'0 0.0
2017-Apr-17 02:00N 57°03' E 010°03'0 0.0
2017-Apr-17 01:30N 57°03' E 010°03'0 0.0
2017-Apr-17 01:00N 57°03' E 010°03'0 0.0
2017-Apr-17 00:30N 57°03' E 010°03'0 0.0
2017-Apr-17 00:00N 57°03' E 010°03'0 0.0
2017-Apr-16 23:27N 57°03' E 010°03'0 0.0
2017-Apr-16 22:57N 57°03' E 010°03'0 0.0
2017-Apr-16 22:27N 57°03' E 010°03'0 0.0
2017-Apr-16 22:00N 57°03' E 010°03'0 0.0
2017-Apr-16 21:30N 57°03' E 010°03'0 0.0
2017-Apr-16 20:57N 57°03' E 010°03'0 0.0
2017-Apr-16 20:30N 57°03' E 010°03'0 0.0
2017-Apr-16 20:00N 57°03' E 010°03'0 0.0
2017-Apr-16 19:30N 57°03' E 010°03'0 0.0
2017-Apr-16 18:51N 57°03' E 010°03'0 0.0
2017-Apr-16 18:30N 57°03' E 010°03'0 0.0
2017-Apr-16 18:00N 57°03' E 010°03'0 0.0
2017-Apr-16 17:30N 57°03' E 010°03'0 0.0
2017-Apr-16 17:00N 57°03' E 010°03'0 0.0
2017-Apr-16 16:27N 57°03' E 010°03'0 0.0
2017-Apr-16 15:57N 57°03' E 010°03'0 0.0
2017-Apr-16 15:30N 57°03' E 010°03'0 0.0
2017-Apr-16 15:00N 57°03' E 010°03'0 0.9
2017-Apr-16 14:30N 57°03' E 010°04'10 9.8
2017-Apr-16 13:30N 56°59' E 010°20'22 6.7
2017-Apr-16 10:11N 57°17' E 010°42'314.3
2017-Apr-16 10:00N 57°20' E 010°42'714.8
2017-Apr-16 09:30N 57°27' E 010°41'814.9
2017-Apr-16 09:00N 57°35' E 010°44'815.1
2017-Apr-16 08:30N 57°42' E 010°45'612.1
2017-Apr-16 08:00N 57°47' E 010°38'917.2
2017-Apr-16 07:30N 57°47' E 010°21'  
Track history (hours):
 
Tides and Currents Weather Stations Pressure Air Temp Water Temp Dewpoint Dewpoint Depression Visibility Wind Speed Wind Dir Waves Ship Positions

Nuka Arctica

Last reported at 2017-Apr-22 17:18 UTC. Time now 2017-Apr-25 22:27 UTC.
Position N 58°34' E 004°22'.

Length 132.92 m; beam 24 m; draft 7.65 m.

Type: Cargo ship. MMSI: 219655000.

Date/timePositionNaut miles runAvg speedWind from/ knotsBaromVisibWave heightAir tempDewpointWater temp
2017-Apr-22 17:18N 58°34' E 004°22'3 9.2
2017-Apr-22 17:00N 58°33' E 004°27'510.1
2017-Apr-22 16:30N 58°31' E 004°36'510.5
2017-Apr-22 16:00N 58°29' E 004°46'510.7
2017-Apr-22 15:30N 58°27' E 004°55'510.6
2017-Apr-22 15:00N 58°25' E 005°04'611.1
2017-Apr-22 14:30N 58°23' E 005°14'1111.1
2017-Apr-22 13:30N 58°17' E 005°32'510.9
2017-Apr-22 13:00N 58°13' E 005°40'511.1
2017-Apr-22 12:30N 58°10' E 005°47'510.6
2017-Apr-22 12:00N 58°06' E 005°55'510.4
2017-Apr-22 11:30N 58°03' E 006°03'5 9.9
2017-Apr-22 11:00N 57°60' E 006°10'510.2
2017-Apr-22 10:30N 57°56' E 006°17'5 9.5
2017-Apr-22 10:00N 57°53' E 006°24'5 9.9
2017-Apr-22 09:30N 57°50' E 006°31'510.3
2017-Apr-22 09:00N 57°47' E 006°38'611.8
2017-Apr-22 08:30N 57°47' E 006°49'611.5
2017-Apr-22 08:00N 57°47' E 007°00'611.7
2017-Apr-22 07:30N 57°47' E 007°11'611.7
2017-Apr-22 07:01N 57°47' E 007°22'611.6
2017-Apr-22 06:30N 57°46' E 007°33'612.7
2017-Apr-22 06:00N 57°47' E 007°45'612.7
2017-Apr-22 05:30N 57°46' E 007°57'713.3
2017-Apr-22 05:00N 57°47' E 008°10'6512.4
2017-Apr-21 23:44N 57°48' E 010°11'311.1
2017-Apr-21 23:29N 57°48' E 010°17'510.5
2017-Apr-21 23:00N 57°48' E 010°26'5 9.8
2017-Apr-21 22:30N 57°48' E 010°36'5 9.7
2017-Apr-21 21:58N 57°48' E 010°45'612.4
2017-Apr-21 21:29N 57°42' E 010°47'714.0
2017-Apr-21 21:00N 57°35' E 010°46'713.8
2017-Apr-21 20:30N 57°28' E 010°44'713.7
2017-Apr-21 19:59N 57°21' E 010°43'613.3
2017-Apr-21 19:30N 57°15' E 010°43'21 7.0
2017-Apr-21 16:30N 56°55' E 010°29'611.4
2017-Apr-21 16:01N 56°58' E 010°21'611.6
2017-Apr-21 15:31N 57°00' E 010°10'5 9.3
2017-Apr-21 15:01N 57°03' E 010°04'0 0.0
2017-Apr-21 14:27N 57°03' E 010°04'0 0.0
2017-Apr-21 13:27N 57°03' E 010°04'0 0.0
2017-Apr-21 12:57N 57°03' E 010°04'0 0.0
2017-Apr-21 12:30N 57°03' E 010°04'0 0.0
2017-Apr-21 12:00N 57°03' E 010°04'0 0.0
2017-Apr-21 11:30N 57°03' E 010°04'0 0.0
2017-Apr-21 11:00N 57°03' E 010°04'0 0.0
2017-Apr-21 10:30N 57°03' E 010°04'0 0.0
2017-Apr-21 09:57N 57°03' E 010°04'0 0.0
2017-Apr-21 09:27N 57°03' E 010°04'0 0.0
2017-Apr-21 09:00N 57°03' E 010°04'0 0.0
2017-Apr-21 08:30N 57°03' E 010°04'0 0.0
2017-Apr-21 07:51N 57°03' E 010°04'0 0.0
2017-Apr-21 07:30N 57°03' E 010°04'0 0.0
2017-Apr-21 06:57N 57°03' E 010°04'0 0.0
2017-Apr-21 06:30N 57°03' E 010°04'0 0.0
2017-Apr-21 05:57N 57°03' E 010°04'0 0.0
2017-Apr-21 05:30N 57°03' E 010°04'0 0.0
2017-Apr-21 05:00N 57°03' E 010°04'0 0.0
2017-Apr-21 04:30N 57°03' E 010°04'0 0.0
2017-Apr-21 04:00N 57°03' E 010°04'0 0.0
2017-Apr-21 03:30N 57°03' E 010°04'0 0.0
2017-Apr-21 03:00N 57°03' E 010°04'0 0.0
2017-Apr-21 02:27N 57°03' E 010°04'0 0.0
2017-Apr-21 02:00N 57°03' E 010°04'0 0.0
2017-Apr-21 01:30N 57°03' E 010°04'0 0.0
2017-Apr-21 01:00N 57°03' E 010°04'0 0.0
2017-Apr-21 00:30N 57°03' E 010°04'0 0.0
2017-Apr-21 00:00N 57°03' E 010°04'0 0.0
2017-Apr-20 23:30N 57°03' E 010°04'0 0.0
2017-Apr-20 23:00N 57°03' E 010°04'0 0.0
2017-Apr-20 22:30N 57°03' E 010°04'0 0.0
2017-Apr-20 21:57N 57°03' E 010°04'0 0.0
2017-Apr-20 21:30N 57°03' E 010°04'0 0.0
2017-Apr-20 21:00N 57°03' E 010°04'0 0.0
2017-Apr-20 20:27N 57°03' E 010°04'0 0.0
2017-Apr-20 20:00N 57°03' E 010°04'0 0.0
2017-Apr-20 19:30N 57°03' E 010°04'0 0.0
2017-Apr-20 19:00N 57°03' E 010°04'0 0.0
2017-Apr-20 18:30N 57°03' E 010°04'0 0.0
2017-Apr-20 18:00N 57°03' E 010°04'0 0.0
2017-Apr-20 17:30N 57°03' E 010°04'0 0.0
2017-Apr-20 17:00N 57°03' E 010°04'0 0.0
2017-Apr-20 16:30N 57°03' E 010°04'0 0.0
2017-Apr-20 15:57N 57°03' E 010°04'0 0.0
2017-Apr-20 15:27N 57°03' E 010°04'0 0.0
2017-Apr-20 14:57N 57°03' E 010°04'0 0.4
2017-Apr-20 14:30N 57°03' E 010°03'0 0.0
2017-Apr-20 13:30N 57°03' E 010°03'0 0.0
2017-Apr-20 12:57N 57°03' E 010°03'0 0.0
2017-Apr-20 12:30N 57°03' E 010°03'0 0.0
2017-Apr-20 12:00N 57°03' E 010°03'0 0.0
2017-Apr-20 11:27N 57°03' E 010°03'0 0.0
2017-Apr-20 11:00N 57°03' E 010°03'0 0.0
2017-Apr-20 10:30N 57°03' E 010°03'0 0.0
2017-Apr-20 10:00N 57°03' E 010°03'0 0.0
2017-Apr-20 09:30N 57°03' E 010°03'0 0.0
2017-Apr-20 08:57N 57°03' E 010°03'0 0.0
2017-Apr-20 08:21N 57°03' E 010°03'0 0.0
2017-Apr-20 08:00N 57°03' E 010°03'0 0.0
2017-Apr-20 07:30N 57°03' E 010°03'0 0.0
2017-Apr-20 06:57N 57°03' E 010°03'0 0.0
2017-Apr-20 06:30N 57°03' E 010°03'0 0.0
2017-Apr-20 06:00N 57°03' E 010°03'0 0.0
2017-Apr-20 05:27N 57°03' E 010°03'0 0.0
2017-Apr-20 05:00N 57°03' E 010°03'0 0.0
2017-Apr-20 04:30N 57°03' E 010°03'0 0.0
2017-Apr-20 04:00N 57°03' E 010°03'0 0.0
2017-Apr-20 03:30N 57°03' E 010°03'0 0.0
2017-Apr-20 02:51N 57°03' E 010°03'0 0.0
2017-Apr-20 02:27N 57°03' E 010°03'0 0.0
2017-Apr-20 01:51N 57°03' E 010°03'0 0.0
2017-Apr-20 01:27N 57°03' E 010°03'0 0.0
2017-Apr-20 00:57N 57°03' E 010°03'0 0.0
2017-Apr-20 00:30N 57°03' E 010°03'0 0.0
2017-Apr-19 23:57N 57°03' E 010°03'0 0.0
2017-Apr-19 23:27N 57°03' E 010°03'0 0.0
2017-Apr-19 23:00N 57°03' E 010°03'0 0.0
2017-Apr-19 22:30N 57°03' E 010°03'0 0.0
2017-Apr-19 21:57N 57°03' E 010°03'0 0.0
2017-Apr-19 21:27N 57°03' E 010°03'0 0.0
2017-Apr-19 21:00N 57°03' E 010°03'0 0.0
2017-Apr-19 20:30N 57°03' E 010°03'0 0.0
2017-Apr-19 20:00N 57°03' E 010°03'0 0.0
2017-Apr-19 19:30N 57°03' E 010°03'0 0.0
2017-Apr-19 19:00N 57°03' E 010°03'0 0.0
2017-Apr-19 18:27N 57°03' E 010°03'0 0.0
2017-Apr-19 18:00N 57°03' E 010°03'0 0.0
2017-Apr-19 17:30N 57°03' E 010°03'0 0.0
2017-Apr-19 17:00N 57°03' E 010°03'0 0.0
2017-Apr-19 16:30N 57°03' E 010°03'0 0.0
2017-Apr-19 16:00N 57°03' E 010°03'0 0.0
2017-Apr-19 15:30N 57°03' E 010°03'0 0.0
2017-Apr-19 15:00N 57°03' E 010°03'0 0.0
2017-Apr-19 14:27N 57°03' E 010°03'0 0.0
2017-Apr-19 13:21N 57°03' E 010°03'0 0.0
2017-Apr-19 13:00N 57°03' E 010°03'0 0.0
2017-Apr-19 12:27N 57°03' E 010°03'0 0.0
2017-Apr-19 12:00N 57°03' E 010°03'0 0.0
2017-Apr-19 11:30N 57°03' E 010°03'0 0.0
2017-Apr-19 10:48N 57°03' E 010°03'0 0.0
2017-Apr-19 10:30N 57°03' E 010°03'0 0.0
2017-Apr-19 10:00N 57°03' E 010°03'0 0.0
2017-Apr-19 09:30N 57°03' E 010°03'0 0.0
2017-Apr-19 09:00N 57°03' E 010°03'0 0.0
2017-Apr-19 08:30N 57°03' E 010°03'0 0.0
2017-Apr-19 08:00N 57°03' E 010°03'0 0.0
2017-Apr-19 07:30N 57°03' E 010°03'0 0.0
2017-Apr-19 07:00N 57°03' E 010°03'0 0.0
2017-Apr-19 06:30N 57°03' E 010°03'0 0.0
2017-Apr-19 06:00N 57°03' E 010°03'0 0.0
2017-Apr-19 05:30N 57°03' E 010°03'0 0.0
2017-Apr-19 05:00N 57°03' E 010°03'0 0.0
2017-Apr-19 04:30N 57°03' E 010°03'0 0.0
2017-Apr-19 04:00N 57°03' E 010°03'0 0.0
2017-Apr-19 03:30N 57°03' E 010°03'0 0.0
2017-Apr-19 03:00N 57°03' E 010°03'0 0.0
2017-Apr-19 02:30N 57°03' E 010°03'0 0.0
2017-Apr-19 02:00N 57°03' E 010°03'0 0.0
2017-Apr-19 01:30N 57°03' E 010°03'0 0.0
2017-Apr-19 01:00N 57°03' E 010°03'0 0.0
2017-Apr-19 00:30N 57°03' E 010°03'0 0.0
2017-Apr-19 00:00N 57°03' E 010°03'0 0.0
2017-Apr-18 23:30N 57°03' E 010°03'0 0.0
2017-Apr-18 23:00N 57°03' E 010°03'0 0.0
2017-Apr-18 22:27N 57°03' E 010°03'0 0.0
2017-Apr-18 22:00N 57°03' E 010°03'0 0.0
2017-Apr-18 21:30N 57°03' E 010°03'0 0.0
2017-Apr-18 21:00N 57°03' E 010°03'0 0.0
2017-Apr-18 20:30N 57°03' E 010°03'0 0.0
2017-Apr-18 20:00N 57°03' E 010°03'0 0.0
2017-Apr-18 19:27N 57°03' E 010°03'0 0.0
2017-Apr-18 18:57N 57°03' E 010°03'0 0.0
2017-Apr-18 18:30N 57°03' E 010°03'0 0.0
2017-Apr-18 18:00N 57°03' E 010°03'0 0.0
2017-Apr-18 17:30N 57°03' E 010°03'0 0.0
2017-Apr-18 17:00N 57°03' E 010°03'0 0.0
2017-Apr-18 16:30N 57°03' E 010°03'0 0.0
2017-Apr-18 16:00N 57°03' E 010°03'0 0.0
2017-Apr-18 15:30N 57°03' E 010°03'0 0.0
2017-Apr-18 14:57N 57°03' E 010°03'0 0.0
2017-Apr-18 14:30N 57°03' E 010°03'0 0.0
2017-Apr-18 13:30N 57°03' E 010°03'0 0.0
2017-Apr-18 13:00N 57°03' E 010°03'0 0.0
2017-Apr-18 12:30N 57°03' E 010°03'0 0.0
2017-Apr-18 12:00N 57°03' E 010°03'0 0.0
2017-Apr-18 11:30N 57°03' E 010°03'0 0.0
2017-Apr-18 11:00N 57°03' E 010°03'0 0.0
2017-Apr-18 10:30N 57°03' E 010°03'0 0.0
2017-Apr-18 10:00N 57°03' E 010°03'0 0.0
2017-Apr-18 09:27N 57°03' E 010°03'0 0.0
2017-Apr-18 09:00N 57°03' E 010°03'0 0.0
2017-Apr-18 08:30N 57°03' E 010°03'0 0.0
2017-Apr-18 07:57N 57°03' E 010°03'0 0.0
2017-Apr-18 07:21N 57°03' E 010°03'0 0.0
2017-Apr-18 07:00N 57°03' E 010°03'0 0.0
2017-Apr-18 06:30N 57°03' E 010°03'0 0.0
2017-Apr-18 06:00N 57°03' E 010°03'0 0.0
2017-Apr-18 05:21N 57°03' E 010°03'0 0.0
2017-Apr-18 05:00N 57°03' E 010°03'0 0.0
2017-Apr-18 04:30N 57°03' E 010°03'0 0.0
2017-Apr-18 04:00N 57°03' E 010°03'0 0.0
2017-Apr-18 03:30N 57°03' E 010°03'0 0.0
2017-Apr-18 03:00N 57°03' E 010°03'0 0.0
2017-Apr-18 02:30N 57°03' E 010°03'0 0.0
2017-Apr-18 02:00N 57°03' E 010°03'0 0.0
2017-Apr-18 01:30N 57°03' E 010°03'0 0.0
2017-Apr-18 00:57N 57°03' E 010°03'0 0.0
2017-Apr-18 00:24N 57°03' E 010°03'0 0.0
2017-Apr-18 00:00N 57°03' E 010°03'0 0.0
2017-Apr-17 23:30N 57°03' E 010°03'0 0.0
2017-Apr-17 23:00N 57°03' E 010°03'0 0.0
2017-Apr-17 22:27N 57°03' E 010°03'0 0.0
2017-Apr-17 22:00N 57°03' E 010°03'0 0.0
2017-Apr-17 21:30N 57°03' E 010°03'0 0.0
2017-Apr-17 21:00N 57°03' E 010°03'0 0.0
2017-Apr-17 20:30N 57°03' E 010°03'0 0.0
2017-Apr-17 20:00N 57°03' E 010°03'0 0.0
2017-Apr-17 19:27N 57°03' E 010°03'0 0.0
2017-Apr-17 19:00N 57°03' E 010°03'0 0.0
2017-Apr-17 18:27N 57°03' E 010°03'0 0.0
2017-Apr-17 18:00N 57°03' E 010°03'0 0.0
2017-Apr-17 17:30N 57°03' E 010°03'0 0.0
2017-Apr-17 17:00N 57°03' E 010°03'0 0.0
2017-Apr-17 16:30N 57°03' E 010°03'0 0.0
2017-Apr-17 15:57N 57°03' E 010°03'0 0.0
2017-Apr-17 15:27N 57°03' E 010°03'0 0.0
2017-Apr-17 15:00N 57°03' E 010°03'0 0.0
2017-Apr-17 14:30N 57°03' E 010°03'0 0.0
2017-Apr-17 13:30N 57°03' E 010°03'0 0.0
2017-Apr-17 13:00N 57°03' E 010°03'0 0.0
2017-Apr-17 12:30N 57°03' E 010°03'0 0.0
2017-Apr-17 12:00N 57°03' E 010°03'0 0.0
2017-Apr-17 11:30N 57°03' E 010°03'0 0.0
2017-Apr-17 11:00N 57°03' E 010°03'0 0.0
2017-Apr-17 10:30N 57°03' E 010°03'0 0.0
2017-Apr-17 09:45N 57°03' E 010°03'0 0.0
2017-Apr-17 09:30N 57°03' E 010°03'0 0.0
2017-Apr-17 09:00N 57°03' E 010°03'0 0.0
2017-Apr-17 08:30N 57°03' E 010°03'0 0.0
2017-Apr-17 08:00N 57°03' E 010°03'0 0.0
2017-Apr-17 07:30N 57°03' E 010°03'0 0.0
2017-Apr-17 07:00N 57°03' E 010°03'0 0.0
2017-Apr-17 06:27N 57°03' E 010°03'0 0.0
2017-Apr-17 06:00N 57°03' E 010°03'0 0.0
2017-Apr-17 05:30N 57°03' E 010°03'0 0.0
2017-Apr-17 05:00N 57°03' E 010°03'0 0.0
2017-Apr-17 04:30N 57°03' E 010°03'0 0.0
2017-Apr-17 03:57N 57°03' E 010°03'0 0.0
2017-Apr-17 03:27N 57°03' E 010°03'0 0.0
2017-Apr-17 02:57N 57°03' E 010°03'0 0.0
2017-Apr-17 02:30N 57°03' E 010°03'0 0.0
2017-Apr-17 02:00N 57°03' E 010°03'0 0.0
2017-Apr-17 01:30N 57°03' E 010°03'0 0.0
2017-Apr-17 01:00N 57°03' E 010°03'0 0.0
2017-Apr-17 00:30N 57°03' E 010°03'0 0.0
2017-Apr-17 00:00N 57°03' E 010°03'0 0.0
2017-Apr-16 23:27N 57°03' E 010°03'0 0.0
2017-Apr-16 22:57N 57°03' E 010°03'0 0.0
2017-Apr-16 22:27N 57°03' E 010°03'0 0.0
2017-Apr-16 22:00N 57°03' E 010°03'0 0.0
2017-Apr-16 21:30N 57°03' E 010°03'0 0.0
2017-Apr-16 20:57N 57°03' E 010°03'0 0.0
2017-Apr-16 20:30N 57°03' E 010°03'0 0.0
2017-Apr-16 20:00N 57°03' E 010°03'0 0.0
2017-Apr-16 19:30N 57°03' E 010°03'0 0.0
2017-Apr-16 18:51N 57°03' E 010°03'0 0.0
2017-Apr-16 18:30N 57°03' E 010°03'0 0.0
2017-Apr-16 18:00N 57°03' E 010°03'0 0.0
2017-Apr-16 17:30N 57°03' E 010°03'0 0.0
2017-Apr-16 17:00N 57°03' E 010°03'0 0.0
2017-Apr-16 16:27N 57°03' E 010°03'0 0.0
2017-Apr-16 15:57N 57°03' E 010°03'0 0.0
2017-Apr-16 15:30N 57°03' E 010°03'0 0.0
2017-Apr-16 15:00N 57°03' E 010°03'0 0.9
2017-Apr-16 14:30N 57°03' E 010°04'10 9.8
2017-Apr-16 13:30N 56°59' E 010°20'22 6.7
2017-Apr-16 10:11N 57°17' E 010°42'314.3
2017-Apr-16 10:00N 57°20' E 010°42'714.8
2017-Apr-16 09:30N 57°27' E 010°41'814.9
2017-Apr-16 09:00N 57°35' E 010°44'815.1
2017-Apr-16 08:30N 57°42' E 010°45'612.1
2017-Apr-16 08:00N 57°47' E 010°38'917.2
2017-Apr-16 07:30N 57°47' E 010°21'  

Dump ship's entire track history